createdAt,value
2022-12-25T00:00:02.078Z,98.53
2022-12-25T00:02:03.673Z,98.45
2022-12-25T00:04:05.364Z,98.35
2022-12-25T00:06:07.308Z,99.83
2022-12-25T00:08:09.982Z,100.00
2022-12-25T00:10:11.816Z,100.00
2022-12-25T00:12:13.274Z,100.00
2022-12-25T00:14:14.714Z,100.00
2022-12-25T00:16:20.461Z,100.00
2022-12-25T00:18:22.595Z,100.00
2022-12-25T00:20:24.110Z,100.00
2022-12-25T00:22:25.572Z,100.00
2022-12-25T00:24:27.032Z,100.00
2022-12-25T00:26:28.595Z,100.00
2022-12-25T00:28:30.054Z,100.00
2022-12-25T00:30:31.569Z,100.00
2022-12-25T00:32:36.480Z,100.00
2022-12-25T00:34:37.925Z,100.00
2022-12-25T00:36:41.924Z,100.00
2022-12-25T00:38:43.904Z,100.00
2022-12-25T00:40:45.380Z,100.00
2022-12-25T00:42:49.200Z,100.00
2022-12-25T00:44:50.977Z,100.00
2022-12-25T00:46:52.576Z,100.00
2022-12-25T00:48:54.110Z,100.00
2022-12-25T00:50:57.563Z,100.00
2022-12-25T00:52:59.007Z,100.00
2022-12-25T00:55:00.566Z,100.00
2022-12-25T00:57:02.381Z,100.00
2022-12-25T00:59:03.910Z,100.00
2022-12-25T01:01:05.516Z,100.00
2022-12-25T01:03:07.049Z,100.00
2022-12-25T01:05:09.146Z,100.00
2022-12-25T01:07:11.556Z,100.00
2022-12-25T01:09:31.308Z,100.00
2022-12-25T01:11:32.877Z,100.00
2022-12-25T01:13:37.745Z,100.00
2022-12-25T01:15:39.226Z,100.00
2022-12-25T01:17:42.293Z,100.00
2022-12-25T01:19:43.728Z,100.00
2022-12-25T01:21:45.177Z,100.00
2022-12-25T01:23:48.395Z,100.00
2022-12-25T01:25:49.882Z,100.00
2022-12-25T01:27:51.423Z,100.00
2022-12-25T01:29:52.889Z,100.00
2022-12-25T01:31:54.404Z,100.00
2022-12-25T01:33:56.004Z,100.00
2022-12-25T01:35:58.688Z,100.00
2022-12-25T01:38:00.240Z,100.00
2022-12-25T01:40:01.829Z,100.00
2022-12-25T01:42:03.427Z,100.00
2022-12-25T01:44:37.235Z,99.02
2022-12-25T01:46:38.706Z,98.93
2022-12-25T01:48:40.197Z,99.19
2022-12-25T01:50:45.989Z,98.57
2022-12-25T01:52:48.264Z,97.77
2022-12-25T01:54:51.710Z,97.93
2022-12-25T01:56:56.783Z,97.90
2022-12-25T01:58:59.787Z,97.42
2022-12-25T02:01:01.331Z,97.04
2022-12-25T02:03:03.826Z,96.66
2022-12-25T02:05:15.677Z,96.34
2022-12-25T02:07:20.410Z,96.63
2022-12-25T02:09:21.888Z,96.61
2022-12-25T02:11:42.064Z,96.66
2022-12-25T02:13:43.558Z,96.31
2022-12-25T02:15:45.010Z,95.50
2022-12-25T02:17:57.417Z,95.79
2022-12-25T02:20:26.359Z,95.31
2022-12-25T02:22:44.285Z,95.02
2022-12-25T02:25:05.534Z,95.12
2022-12-25T02:27:26.736Z,95.37
2022-12-25T02:29:50.086Z,94.97
2022-12-25T02:32:28.109Z,94.90
2022-12-25T02:34:29.483Z,94.52
2022-12-25T02:36:53.869Z,94.72
2022-12-25T02:39:19.803Z,94.41
2022-12-25T02:41:21.609Z,94.82
2022-12-25T02:43:48.475Z,94.76
2022-12-25T02:46:13.832Z,94.50
2022-12-25T02:48:35.574Z,93.99
2022-12-25T02:50:55.928Z,94.59
2022-12-25T02:53:20.294Z,94.57
2022-12-25T02:55:44.552Z,94.43
2022-12-25T02:58:09.385Z,94.39
2022-12-25T03:00:30.724Z,94.11
2022-12-25T03:02:51.974Z,94.26
2022-12-25T03:05:15.305Z,94.07
2022-12-25T03:07:20.519Z,93.70
2022-12-25T03:09:45.789Z,93.58
2022-12-25T03:11:54.592Z,93.69
2022-12-25T03:14:17.834Z,93.73
2022-12-25T03:16:39.388Z,93.73
2022-12-25T03:18:41.794Z,93.86
2022-12-25T03:21:02.371Z,93.98
2022-12-25T03:23:24.428Z,94.17
2022-12-25T03:25:47.385Z,93.74
2022-12-25T03:27:54.478Z,93.78
2022-12-25T03:30:14.935Z,93.84
2022-12-25T03:32:25.231Z,94.21
2022-12-25T03:34:58.653Z,93.69
2022-12-25T03:37:36.625Z,93.92
2022-12-25T03:39:54.945Z,93.73
2022-12-25T03:42:20.950Z,93.76
2022-12-25T03:44:42.829Z,93.76
2022-12-25T03:47:07.067Z,93.99
2022-12-25T03:49:35.591Z,93.57
2022-12-25T03:51:57.422Z,93.60
2022-12-25T03:54:24.331Z,93.36
2022-12-25T03:56:48.192Z,93.96
2022-12-25T03:59:11.111Z,93.29
2022-12-25T04:01:31.571Z,93.64
2022-12-25T04:03:51.771Z,93.72
2022-12-25T04:06:11.937Z,93.64
2022-12-25T04:08:31.698Z,93.92
2022-12-25T04:10:51.693Z,93.75
2022-12-25T04:13:12.026Z,94.01
2022-12-25T04:15:31.836Z,93.75
2022-12-25T04:17:51.782Z,93.82
2022-12-25T04:20:11.629Z,93.58
2022-12-25T04:22:31.466Z,94.03
2022-12-25T04:24:51.332Z,93.88
2022-12-25T04:27:11.115Z,93.64
2022-12-25T04:29:30.775Z,93.57
2022-12-25T04:31:50.762Z,93.72
2022-12-25T04:34:18.053Z,93.57
2022-12-25T04:36:19.780Z,93.50
2022-12-25T04:38:22.294Z,93.60
2022-12-25T04:40:23.882Z,93.77
2022-12-25T04:42:25.343Z,93.76
2022-12-25T04:44:27.177Z,93.95
2022-12-25T04:46:28.721Z,93.82
2022-12-25T04:48:32.839Z,94.03
2022-12-25T04:50:34.305Z,93.85
2022-12-25T04:52:37.852Z,94.15
2022-12-25T04:54:39.325Z,93.97
2022-12-25T04:56:45.486Z,94.07
2022-12-25T04:58:47.695Z,94.24
2022-12-25T05:00:49.158Z,94.15
2022-12-25T05:02:50.801Z,94.07
2022-12-25T05:04:52.350Z,94.49
2022-12-25T05:06:53.818Z,94.42
2022-12-25T05:08:55.327Z,94.13
2022-12-25T05:10:56.793Z,94.45
2022-12-25T05:12:58.224Z,94.41
2022-12-25T05:14:59.680Z,94.55
2022-12-25T05:17:01.153Z,94.48
2022-12-25T05:19:02.655Z,94.83
2022-12-25T05:21:04.588Z,94.35
2022-12-25T05:23:06.126Z,94.79
2022-12-25T05:25:07.953Z,94.71
2022-12-25T05:27:09.431Z,94.81
2022-12-25T05:29:11.032Z,94.61
2022-12-25T05:31:12.575Z,95.06
2022-12-25T05:33:14.222Z,94.56
2022-12-25T05:35:15.865Z,94.87
2022-12-25T05:37:17.312Z,95.37
2022-12-25T05:39:19.094Z,94.98
2022-12-25T05:41:20.688Z,95.53
2022-12-25T05:43:22.185Z,95.78
2022-12-25T05:45:23.652Z,96.17
2022-12-25T05:47:25.129Z,96.45
2022-12-25T05:49:26.557Z,96.66
2022-12-25T05:51:28.088Z,96.77
2022-12-25T05:53:29.539Z,96.67
2022-12-25T05:55:30.993Z,96.85
2022-12-25T05:57:32.533Z,97.52
2022-12-25T05:59:34.209Z,97.43
2022-12-25T06:01:35.707Z,97.84
2022-12-25T06:03:37.382Z,98.11
2022-12-25T06:05:39.785Z,97.56
2022-12-25T06:07:41.316Z,97.82
2022-12-25T06:09:43.781Z,97.84
2022-12-25T06:11:45.897Z,98.49
2022-12-25T06:13:52.116Z,98.73
2022-12-25T06:15:53.762Z,98.32
2022-12-25T06:17:55.339Z,98.87
2022-12-25T06:19:56.788Z,99.21
2022-12-25T06:21:58.284Z,98.87
2022-12-25T06:24:00.759Z,99.13
2022-12-25T06:26:07.639Z,98.91
2022-12-25T06:28:09.111Z,99.05
2022-12-25T06:30:10.879Z,99.12
2022-12-25T06:32:12.375Z,99.13
2022-12-25T06:34:16.465Z,99.47
2022-12-25T06:36:24.265Z,99.07
2022-12-25T06:38:25.787Z,99.98
2022-12-25T06:40:27.277Z,100.00
2022-12-25T06:42:28.738Z,99.93
2022-12-25T06:44:30.205Z,99.89
2022-12-25T06:46:31.732Z,99.97
2022-12-25T06:48:34.230Z,100.00
2022-12-25T06:50:35.675Z,100.00
2022-12-25T06:52:37.120Z,100.00
2022-12-25T06:54:38.590Z,100.00
2022-12-25T06:56:40.122Z,100.00
2022-12-25T06:58:46.407Z,100.00
2022-12-25T07:00:47.920Z,100.00
2022-12-25T07:02:49.780Z,100.00
2022-12-25T07:04:52.542Z,100.00
2022-12-25T07:06:54.164Z,100.00
2022-12-25T07:08:55.636Z,100.00
2022-12-25T07:10:57.153Z,100.00
2022-12-25T07:12:58.599Z,100.00
2022-12-25T07:15:00.080Z,100.00
2022-12-25T07:17:01.633Z,100.00
2022-12-25T07:19:03.229Z,100.00
2022-12-25T07:21:14.058Z,100.00
2022-12-25T07:23:15.549Z,100.00
2022-12-25T07:25:17.029Z,100.00
2022-12-25T07:27:18.533Z,100.00
2022-12-25T07:29:19.992Z,100.00
2022-12-25T07:31:21.751Z,100.00
2022-12-25T07:33:23.328Z,100.00
2022-12-25T07:35:24.838Z,100.00
2022-12-25T07:37:26.288Z,100.00
2022-12-25T07:39:28.185Z,100.00
2022-12-25T07:41:29.664Z,100.00
2022-12-25T07:43:31.151Z,100.00
2022-12-25T07:45:32.621Z,100.00
2022-12-25T07:47:34.128Z,100.00
2022-12-25T07:49:36.098Z,100.00
2022-12-25T07:51:37.801Z,100.00
2022-12-25T07:53:39.583Z,100.00
2022-12-25T07:55:41.076Z,100.00
2022-12-25T07:57:42.679Z,100.00
2022-12-25T07:59:44.172Z,100.00
2022-12-25T08:01:46.010Z,100.00
2022-12-25T08:03:53.157Z,100.00
2022-12-25T08:05:54.713Z,100.00
2022-12-25T08:07:58.091Z,100.00
2022-12-25T08:09:59.655Z,100.00
2022-12-25T08:12:01.159Z,100.00
2022-12-25T08:14:05.885Z,100.00
2022-12-25T08:16:10.117Z,100.00
2022-12-25T08:18:11.733Z,100.00
2022-12-25T08:20:13.679Z,100.00
2022-12-25T08:22:15.216Z,100.00
2022-12-25T08:24:16.662Z,100.00
2022-12-25T08:26:22.536Z,100.00
2022-12-25T08:28:23.978Z,100.00
2022-12-25T08:30:25.490Z,100.00
2022-12-25T08:32:27.004Z,100.00
2022-12-25T08:34:28.493Z,100.00
2022-12-25T08:36:30.750Z,100.00
2022-12-25T08:38:32.495Z,100.00
2022-12-25T08:40:33.959Z,100.00
2022-12-25T08:42:35.417Z,100.00
2022-12-25T08:44:36.878Z,100.00
2022-12-25T08:46:39.837Z,100.00
2022-12-25T08:48:43.620Z,100.00
2022-12-25T08:50:49.917Z,100.00
2022-12-25T08:52:51.392Z,100.00
2022-12-25T08:54:52.842Z,100.00
2022-12-25T08:57:02.128Z,100.00
2022-12-25T08:59:04.099Z,100.00
2022-12-25T09:01:06.302Z,100.00
2022-12-25T09:03:07.982Z,100.00
2022-12-25T09:05:09.911Z,100.00
2022-12-25T09:07:11.573Z,100.00
2022-12-25T09:09:13.078Z,100.00
2022-12-25T09:11:15.123Z,100.00
2022-12-25T09:13:16.676Z,100.00
2022-12-25T09:15:18.233Z,100.00
2022-12-25T09:17:19.738Z,100.00
2022-12-25T09:19:22.101Z,100.00
2022-12-25T09:21:23.841Z,100.00
2022-12-25T09:23:25.432Z,100.00
2022-12-25T09:25:27.037Z,100.00
2022-12-25T09:27:28.507Z,100.00
2022-12-25T09:29:29.942Z,100.00
2022-12-25T09:31:31.619Z,100.00
2022-12-25T09:33:33.196Z,100.00
2022-12-25T09:35:34.914Z,100.00
2022-12-25T09:37:36.359Z,100.00
2022-12-25T09:39:42.279Z,100.00
2022-12-25T09:41:50.304Z,100.00
2022-12-25T09:43:57.483Z,100.00
2022-12-25T09:46:02.309Z,100.00
2022-12-25T09:48:04.248Z,100.00
2022-12-25T09:50:14.895Z,100.00
2022-12-25T09:52:37.584Z,100.00
2022-12-25T09:54:46.593Z,100.00
2022-12-25T09:56:48.326Z,100.00
2022-12-25T09:58:49.790Z,100.00
2022-12-25T10:01:02.009Z,100.00
2022-12-25T10:03:24.203Z,100.00
2022-12-25T10:05:37.958Z,100.00
2022-12-25T10:08:09.941Z,100.00
2022-12-25T10:10:49.439Z,100.00
2022-12-25T10:12:59.663Z,100.00
2022-12-25T10:15:17.541Z,100.00
2022-12-25T10:17:28.370Z,100.00
2022-12-25T10:19:57.392Z,100.00
2022-12-25T10:22:03.947Z,100.00
2022-12-25T10:24:31.260Z,100.00
2022-12-25T10:26:34.344Z,100.00
2022-12-25T10:28:43.637Z,100.00
2022-12-25T10:30:45.526Z,100.00
2022-12-25T10:32:48.025Z,100.00
2022-12-25T10:34:50.040Z,100.00
2022-12-25T10:36:52.180Z,100.00
2022-12-25T10:38:54.648Z,100.00
2022-12-25T10:41:21.331Z,100.00
2022-12-25T10:43:35.666Z,100.00
2022-12-25T10:45:48.621Z,100.00
2022-12-25T10:47:59.539Z,100.00
2022-12-25T10:50:20.265Z,100.00
2022-12-25T10:52:25.133Z,100.00
2022-12-25T10:54:29.666Z,100.00
2022-12-25T10:56:31.196Z,100.00
2022-12-25T10:58:33.786Z,100.00
2022-12-25T11:00:35.312Z,100.00
2022-12-25T11:02:40.774Z,100.00
2022-12-25T11:04:42.994Z,100.00
2022-12-25T11:06:44.467Z,100.00
2022-12-25T11:08:52.967Z,100.00
2022-12-25T11:11:08.492Z,100.00
2022-12-25T11:13:24.387Z,100.00
2022-12-25T11:15:34.182Z,100.00
2022-12-25T11:17:35.925Z,100.00
2022-12-25T11:19:37.359Z,100.00
2022-12-25T11:21:38.834Z,100.00
2022-12-25T11:23:48.290Z,100.00
2022-12-25T11:26:05.477Z,100.00
2022-12-25T11:28:07.270Z,100.00
2022-12-25T11:30:16.170Z,100.00
2022-12-25T11:32:27.839Z,100.00
2022-12-25T11:34:37.045Z,100.00
2022-12-25T11:36:46.148Z,100.00
2022-12-25T11:38:47.884Z,100.00
2022-12-25T11:40:52.237Z,100.00
2022-12-25T11:43:07.912Z,100.00
2022-12-25T11:45:31.331Z,100.00
2022-12-25T11:47:59.834Z,100.00
2022-12-25T11:50:14.007Z,100.00
2022-12-25T11:52:17.375Z,100.00
2022-12-25T11:54:33.526Z,100.00
2022-12-25T11:56:37.831Z,100.00
2022-12-25T11:58:49.388Z,100.00
2022-12-25T12:00:54.330Z,100.00
2022-12-25T12:03:03.956Z,100.00
2022-12-25T12:05:17.854Z,100.00
2022-12-25T12:07:25.486Z,100.00
2022-12-25T12:09:53.628Z,100.00
2022-12-25T12:12:36.407Z,100.00
2022-12-25T12:14:47.876Z,100.00
2022-12-25T12:16:49.516Z,100.00
2022-12-25T12:18:51.146Z,100.00
2022-12-25T12:21:18.366Z,100.00
2022-12-25T12:23:19.932Z,100.00
2022-12-25T12:25:22.294Z,100.00
2022-12-25T12:27:26.584Z,100.00
2022-12-25T12:29:45.615Z,100.00
2022-12-25T12:31:50.469Z,100.00
2022-12-25T12:33:56.105Z,100.00
2022-12-25T12:35:58.162Z,100.00
2022-12-25T12:38:04.258Z,100.00
2022-12-25T12:40:21.316Z,100.00
2022-12-25T12:42:30.982Z,100.00
2022-12-25T12:44:36.711Z,100.00
2022-12-25T12:46:39.949Z,100.00
2022-12-25T12:48:44.649Z,100.00
2022-12-25T12:50:46.588Z,100.00
2022-12-25T12:52:48.091Z,100.00
2022-12-25T12:54:59.446Z,100.00
2022-12-25T12:57:04.551Z,100.00
2022-12-25T12:59:09.840Z,100.00
2022-12-25T13:01:18.814Z,100.00
2022-12-25T13:03:45.067Z,100.00
2022-12-25T13:05:49.588Z,100.00
2022-12-25T13:08:05.634Z,100.00
2022-12-25T13:10:23.833Z,100.00
2022-12-25T13:12:25.588Z,100.00
2022-12-25T13:14:27.468Z,100.00
2022-12-25T13:16:36.933Z,100.00
2022-12-25T13:18:39.700Z,100.00
2022-12-25T13:20:57.320Z,100.00
2022-12-25T13:22:58.788Z,100.00
2022-12-25T13:25:02.630Z,100.00
2022-12-25T13:27:22.822Z,100.00
2022-12-25T13:29:36.285Z,100.00
2022-12-25T13:31:40.562Z,100.00
2022-12-25T13:33:58.160Z,100.00
2022-12-25T13:35:59.857Z,100.00
2022-12-25T13:38:01.370Z,100.00
2022-12-25T13:40:07.840Z,100.00
2022-12-25T13:42:10.049Z,100.00
2022-12-25T13:44:23.637Z,100.00
2022-12-25T13:46:27.500Z,100.00
2022-12-25T13:48:29.065Z,100.00
2022-12-25T13:50:33.143Z,100.00
2022-12-25T13:52:37.637Z,100.00
2022-12-25T13:54:39.520Z,100.00
2022-12-25T13:56:59.155Z,100.00
2022-12-25T13:59:00.712Z,100.00
2022-12-25T14:01:03.412Z,100.00
2022-12-25T14:03:09.911Z,100.00
2022-12-25T14:05:39.805Z,100.00
2022-12-25T14:07:50.242Z,100.00
2022-12-25T14:10:03.302Z,100.00
2022-12-25T14:12:05.272Z,100.00
2022-12-25T14:14:17.876Z,100.00
2022-12-25T14:16:21.093Z,100.00
2022-12-25T14:18:24.191Z,100.00
2022-12-25T14:20:33.701Z,100.00
2022-12-25T14:22:36.000Z,100.00
2022-12-25T14:24:39.489Z,100.00
2022-12-25T14:26:41.426Z,100.00
2022-12-25T14:28:48.208Z,100.00
2022-12-25T14:30:49.813Z,100.00
2022-12-25T14:32:54.325Z,100.00
2022-12-25T14:35:00.203Z,100.00
2022-12-25T14:37:03.749Z,100.00
2022-12-25T14:39:07.604Z,100.00
2022-12-25T14:41:33.291Z,100.00
2022-12-25T14:43:36.361Z,100.00
2022-12-25T14:45:41.050Z,100.00
2022-12-25T14:47:54.723Z,100.00
2022-12-25T14:49:56.752Z,100.00
2022-12-25T14:51:58.746Z,100.00
2022-12-25T14:54:03.837Z,100.00
2022-12-25T14:56:07.789Z,100.00
2022-12-25T14:58:20.517Z,100.00
2022-12-25T15:00:31.667Z,100.00
2022-12-25T15:02:45.792Z,100.00
2022-12-25T15:04:47.496Z,100.00
2022-12-25T15:06:57.619Z,100.00
2022-12-25T15:09:01.780Z,100.00
2022-12-25T15:11:03.689Z,100.00
2022-12-25T15:13:06.221Z,100.00
2022-12-25T15:15:08.127Z,100.00
2022-12-25T15:17:24.536Z,100.00
2022-12-25T15:19:36.944Z,100.00
2022-12-25T15:21:39.174Z,100.00
2022-12-25T15:23:41.947Z,100.00
2022-12-25T15:25:43.438Z,100.00
2022-12-25T15:27:44.905Z,100.00
2022-12-25T15:30:09.077Z,100.00
2022-12-25T15:32:24.164Z,100.00
2022-12-25T15:34:25.595Z,100.00
2022-12-25T15:36:27.865Z,100.00
2022-12-25T15:38:36.342Z,100.00
2022-12-25T15:40:38.640Z,100.00
2022-12-25T15:42:41.132Z,100.00
2022-12-25T15:44:43.675Z,100.00
2022-12-25T15:46:46.061Z,100.00
2022-12-25T15:48:47.617Z,100.00
2022-12-25T15:50:49.402Z,100.00
2022-12-25T15:52:51.039Z,100.00
2022-12-25T15:54:54.139Z,100.00
2022-12-25T15:56:58.445Z,100.00
2022-12-25T15:58:59.898Z,100.00
2022-12-25T16:01:01.693Z,100.00
2022-12-25T16:03:03.351Z,100.00
2022-12-25T16:05:10.274Z,100.00
2022-12-25T16:07:20.779Z,100.00
2022-12-25T16:09:22.397Z,100.00
2022-12-25T16:11:23.870Z,100.00
2022-12-25T16:13:25.361Z,100.00
2022-12-25T16:15:26.821Z,100.00
2022-12-25T16:17:28.332Z,100.00
2022-12-25T16:19:29.829Z,100.00
2022-12-25T16:21:41.143Z,100.00
2022-12-25T16:23:43.218Z,100.00
2022-12-25T16:25:44.976Z,100.00
2022-12-25T16:27:46.704Z,100.00
2022-12-25T16:29:48.199Z,100.00
2022-12-25T16:31:49.674Z,100.00
2022-12-25T16:33:52.893Z,100.00
2022-12-25T16:35:55.012Z,100.00
2022-12-25T16:37:56.478Z,100.00
2022-12-25T16:39:57.928Z,100.00
2022-12-25T16:41:59.552Z,100.00
2022-12-25T16:44:09.298Z,100.00
2022-12-25T16:46:15.238Z,100.00
2022-12-25T16:48:16.818Z,100.00
2022-12-25T16:50:18.653Z,100.00
2022-12-25T16:52:20.165Z,100.00
2022-12-25T16:54:21.668Z,100.00
2022-12-25T16:56:28.284Z,100.00
2022-12-25T16:58:31.481Z,100.00
2022-12-25T17:00:32.925Z,100.00
2022-12-25T17:02:34.771Z,100.00
2022-12-25T17:04:36.446Z,100.00
2022-12-25T17:06:37.915Z,100.00
2022-12-25T17:08:39.387Z,100.00
2022-12-25T17:10:40.825Z,100.00
2022-12-25T17:12:42.477Z,100.00
2022-12-25T17:14:43.949Z,100.00
2022-12-25T17:16:45.743Z,100.00
2022-12-25T17:18:47.343Z,100.00
2022-12-25T17:20:50.047Z,100.00
2022-12-25T17:22:51.588Z,100.00
2022-12-25T17:24:53.097Z,100.00
2022-12-25T17:26:54.592Z,100.00
2022-12-25T17:28:57.146Z,100.00
2022-12-25T17:31:10.599Z,100.00
2022-12-25T17:33:12.156Z,100.00
2022-12-25T17:35:13.732Z,100.00
2022-12-25T17:37:15.170Z,100.00
2022-12-25T17:39:16.632Z,100.00
2022-12-25T17:41:19.088Z,100.00
2022-12-25T17:43:21.167Z,100.00
2022-12-25T17:45:22.771Z,100.00
2022-12-25T17:47:24.229Z,100.00
2022-12-25T17:49:26.188Z,100.00
2022-12-25T17:51:29.518Z,100.00
2022-12-25T17:53:31.177Z,100.00
2022-12-25T17:55:36.360Z,100.00
2022-12-25T17:57:38.858Z,100.00
2022-12-25T17:59:42.560Z,100.00
2022-12-25T18:01:44.215Z,100.00
2022-12-25T18:03:47.094Z,100.00
2022-12-25T18:05:48.962Z,100.00
2022-12-25T18:07:50.445Z,100.00
2022-12-25T18:09:51.896Z,100.00
2022-12-25T18:11:53.371Z,100.00
2022-12-25T18:13:57.936Z,100.00
2022-12-25T18:16:07.405Z,100.00
2022-12-25T18:18:09.321Z,100.00
2022-12-25T18:20:11.047Z,100.00
2022-12-25T18:22:12.529Z,100.00
2022-12-25T18:24:14.015Z,100.00
2022-12-25T18:26:15.813Z,100.00
2022-12-25T18:28:17.584Z,100.00
2022-12-25T18:30:20.010Z,100.00
2022-12-25T18:32:27.852Z,100.00
2022-12-25T18:34:29.671Z,100.00
2022-12-25T18:36:31.611Z,100.00
2022-12-25T18:38:33.331Z,100.00
2022-12-25T18:40:40.149Z,100.00
2022-12-25T18:42:43.022Z,100.00
2022-12-25T18:44:45.008Z,100.00
2022-12-25T18:46:46.469Z,100.00
2022-12-25T18:48:47.960Z,100.00
2022-12-25T18:50:56.428Z,100.00
2022-12-25T18:52:57.887Z,100.00
2022-12-25T18:54:59.399Z,100.00
2022-12-25T18:57:06.868Z,100.00
2022-12-25T18:59:08.695Z,100.00
2022-12-25T19:01:12.414Z,100.00
2022-12-25T19:03:14.334Z,100.00
2022-12-25T19:05:16.109Z,100.00
2022-12-25T19:07:17.595Z,100.00
2022-12-25T19:09:20.151Z,100.00
2022-12-25T19:11:22.809Z,100.00
2022-12-25T19:13:24.337Z,100.00
2022-12-25T19:15:25.930Z,100.00
2022-12-25T19:17:31.928Z,100.00
2022-12-25T19:19:33.851Z,100.00
2022-12-25T19:21:35.339Z,100.00
2022-12-25T19:23:37.996Z,100.00
2022-12-25T19:25:40.559Z,100.00
2022-12-25T19:27:42.018Z,100.00
2022-12-25T19:29:43.594Z,100.00
2022-12-25T19:31:45.142Z,100.00
2022-12-25T19:33:46.602Z,100.00
2022-12-25T19:35:49.005Z,100.00
2022-12-25T19:37:50.564Z,100.00
2022-12-25T19:39:52.007Z,100.00
2022-12-25T19:41:53.467Z,100.00
2022-12-25T19:43:54.913Z,100.00
2022-12-25T19:45:57.155Z,100.00
2022-12-25T19:47:58.690Z,100.00
2022-12-25T19:50:03.193Z,100.00
2022-12-25T19:52:05.611Z,100.00
2022-12-25T19:54:07.676Z,100.00
2022-12-25T19:56:09.520Z,100.00
2022-12-25T19:58:11.561Z,100.00
2022-12-25T20:00:13.366Z,100.00
2022-12-25T20:02:15.022Z,100.00
2022-12-25T20:04:18.190Z,100.00
2022-12-25T20:06:25.866Z,100.00
2022-12-25T20:08:27.936Z,100.00
2022-12-25T20:10:29.632Z,100.00
2022-12-25T20:12:31.170Z,100.00
2022-12-25T20:14:32.717Z,100.00
2022-12-25T20:16:38.142Z,100.00
2022-12-25T20:18:40.463Z,100.00
2022-12-25T20:20:42.887Z,100.00
2022-12-25T20:22:44.344Z,100.00
2022-12-25T20:24:47.715Z,100.00
2022-12-25T20:26:53.753Z,100.00
2022-12-25T20:28:59.316Z,100.00
2022-12-25T20:31:17.449Z,100.00
2022-12-25T20:33:19.010Z,100.00
2022-12-25T20:35:20.465Z,100.00
2022-12-25T20:37:22.044Z,100.00
2022-12-25T20:39:23.541Z,100.00
2022-12-25T20:41:27.427Z,100.00
2022-12-25T20:43:30.664Z,100.00
2022-12-25T20:45:32.429Z,100.00
2022-12-25T20:47:35.017Z,100.00
2022-12-25T20:49:36.510Z,100.00
2022-12-25T20:51:38.184Z,100.00
2022-12-25T20:53:40.540Z,100.00
2022-12-25T20:55:49.701Z,100.00
2022-12-25T20:57:51.273Z,100.00
2022-12-25T20:59:53.429Z,100.00
2022-12-25T21:01:55.931Z,100.00
2022-12-25T21:03:58.212Z,100.00
2022-12-25T21:06:00.046Z,100.00
2022-12-25T21:08:02.170Z,100.00
2022-12-25T21:10:04.676Z,100.00
2022-12-25T21:12:06.849Z,100.00
2022-12-25T21:14:08.756Z,100.00
2022-12-25T21:16:13.568Z,100.00
2022-12-25T21:18:20.538Z,100.00
2022-12-25T21:20:22.042Z,100.00
2022-12-25T21:22:23.512Z,100.00
2022-12-25T21:24:25.010Z,100.00
2022-12-25T21:26:28.743Z,100.00
2022-12-25T21:28:32.256Z,100.00
2022-12-25T21:30:34.301Z,100.00
2022-12-25T21:33:16.979Z,100.00
2022-12-25T21:35:18.840Z,100.00
2022-12-25T21:37:20.284Z,100.00
2022-12-25T21:39:21.924Z,100.00
2022-12-25T21:41:24.785Z,100.00
2022-12-25T21:43:26.280Z,100.00
2022-12-25T21:45:28.506Z,100.00
2022-12-25T21:48:01.899Z,100.00
2022-12-25T21:50:10.033Z,100.00
2022-12-25T21:52:12.103Z,100.00
2022-12-25T21:54:14.471Z,100.00
2022-12-25T21:56:16.465Z,100.00
2022-12-25T21:58:17.901Z,100.00
2022-12-25T22:00:19.867Z,100.00
2022-12-25T22:02:22.359Z,100.00
2022-12-25T22:04:24.005Z,100.00
2022-12-25T22:06:48.282Z,100.00
2022-12-25T22:08:49.792Z,100.00
2022-12-25T22:10:51.313Z,100.00
2022-12-25T22:13:11.224Z,100.00
2022-12-25T22:15:12.774Z,100.00
2022-12-25T22:17:33.012Z,100.00
2022-12-25T22:19:48.134Z,100.00
2022-12-25T22:21:49.630Z,100.00
2022-12-25T22:23:51.207Z,100.00
2022-12-25T22:25:52.694Z,100.00
2022-12-25T22:27:54.888Z,100.00
2022-12-25T22:29:57.026Z,100.00
2022-12-25T22:31:58.573Z,100.00
2022-12-25T22:34:00.038Z,100.00
2022-12-25T22:36:07.258Z,100.00
2022-12-25T22:38:08.804Z,100.00
2022-12-25T22:40:13.643Z,100.00
2022-12-25T22:42:15.763Z,100.00
2022-12-25T22:44:18.209Z,100.00
2022-12-25T22:46:20.099Z,100.00
2022-12-25T22:48:21.596Z,100.00
2022-12-25T22:50:23.167Z,100.00
2022-12-25T22:52:24.928Z,100.00
2022-12-25T22:54:29.333Z,100.00
2022-12-25T22:56:30.945Z,100.00
2022-12-25T22:58:32.398Z,100.00
2022-12-25T23:00:33.872Z,100.00
2022-12-25T23:02:35.591Z,100.00
2022-12-25T23:04:37.258Z,100.00
2022-12-25T23:06:39.774Z,100.00
2022-12-25T23:08:41.258Z,100.00
2022-12-25T23:10:42.720Z,100.00
2022-12-25T23:13:02.568Z,100.00
2022-12-25T23:15:04.377Z,100.00
2022-12-25T23:17:28.312Z,100.00
2022-12-25T23:19:48.483Z,100.00
2022-12-25T23:22:08.892Z,100.00
2022-12-25T23:24:29.228Z,100.00
2022-12-25T23:26:30.750Z,100.00
2022-12-25T23:28:50.762Z,100.00
2022-12-25T23:30:52.232Z,100.00
2022-12-25T23:32:53.703Z,100.00
2022-12-25T23:34:55.893Z,100.00
2022-12-25T23:36:57.672Z,100.00
2022-12-25T23:39:04.870Z,100.00
2022-12-25T23:41:10.360Z,100.00
2022-12-25T23:43:11.907Z,100.00
2022-12-25T23:45:13.789Z,100.00
2022-12-25T23:47:15.314Z,100.00
2022-12-25T23:49:17.227Z,100.00
2022-12-25T23:51:18.702Z,100.00
2022-12-25T23:53:20.182Z,100.00
2022-12-25T23:55:21.752Z,100.00
2022-12-25T23:57:23.279Z,100.00
2022-12-25T23:59:26.445Z,100.00
